sensor_id;sensor_type;location;lat;lon;timestamp;temperature;humidity
7204;DHT22;3643;52.460;13.322;2023-04-26T00:00:05;4.10;99.90
7204;DHT22;3643;52.460;13.322;2023-04-26T00:02:35;4.10;99.90
7204;DHT22;3643;52.460;13.322;2023-04-26T00:05:06;4.00;99.90
7204;DHT22;3643;52.460;13.322;2023-04-26T00:07:36;4.00;99.90
7204;DHT22;3643;52.460;13.322;2023-04-26T00:10:05;4.00;99.90
7204;DHT22;3643;52.460;13.322;2023-04-26T00:12:34;4.10;99.90
7204;DHT22;3643;52.460;13.322;2023-04-26T00:15:04;4.10;99.90
7204;DHT22;3643;52.460;13.322;2023-04-26T00:17:33;4.00;99.90
7204;DHT22;3643;52.460;13.322;2023-04-26T00:20:02;4.00;99.90
7204;DHT22;3643;52.460;13.322;2023-04-26T00:22:36;4.00;99.90
7204;DHT22;3643;52.460;13.322;2023-04-26T00:25:06;4.00;99.90
7204;DHT22;3643;52.460;13.322;2023-04-26T00:27:34;3.90;99.90
7204;DHT22;3643;52.460;13.322;2023-04-26T00:30:04;3.90;99.90
7204;DHT22;3643;52.460;13.322;2023-04-26T00:32:33;3.90;99.90
7204;DHT22;3643;52.460;13.322;2023-04-26T00:35:03;3.90;99.90
7204;DHT22;3643;52.460;13.322;2023-04-26T00:37:32;3.90;99.90
7204;DHT22;3643;52.460;13.322;2023-04-26T00:40:02;3.80;99.90
7204;DHT22;3643;52.460;13.322;2023-04-26T00:42:32;3.80;99.90
7204;DHT22;3643;52.460;13.322;2023-04-26T00:45:00;3.80;99.90
7204;DHT22;3643;52.460;13.322;2023-04-26T00:47:30;3.70;99.90
7204;DHT22;3643;52.460;13.322;2023-04-26T00:50:00;3.70;99.90
7204;DHT22;3643;52.460;13.322;2023-04-26T00:52:30;3.70;99.90
7204;DHT22;3643;52.460;13.322;2023-04-26T00:54:59;3.70;99.90
7204;DHT22;3643;52.460;13.322;2023-04-26T00:57:29;3.70;99.90
7204;DHT22;3643;52.460;13.322;2023-04-26T00:59:58;3.70;99.90
7204;DHT22;3643;52.460;13.322;2023-04-26T01:02:27;3.60;99.90
7204;DHT22;3643;52.460;13.322;2023-04-26T01:04:55;3.60;99.90
7204;DHT22;3643;52.460;13.322;2023-04-26T01:07:24;3.60;99.90
7204;DHT22;3643;52.460;13.322;2023-04-26T01:09:54;3.60;99.90
7204;DHT22;3643;52.460;13.322;2023-04-26T01:12:23;3.50;99.90
7204;DHT22;3643;52.460;13.322;2023-04-26T01:14:53;3.50;99.90
7204;DHT22;3643;52.460;13.322;2023-04-26T01:17:22;3.50;99.90
7204;DHT22;3643;52.460;13.322;2023-04-26T01:19:50;3.40;99.90
7204;DHT22;3643;52.460;13.322;2023-04-26T01:22:19;3.40;99.90
7204;DHT22;3643;52.460;13.322;2023-04-26T01:24:53;3.40;99.90
7204;DHT22;3643;52.460;13.322;2023-04-26T01:27:22;3.40;99.90
7204;DHT22;3643;52.460;13.322;2023-04-26T01:29:51;3.40;99.90
7204;DHT22;3643;52.460;13.322;2023-04-26T01:32:20;3.30;99.90
7204;DHT22;3643;52.460;13.322;2023-04-26T01:34:48;3.40;99.90
7204;DHT22;3643;52.460;13.322;2023-04-26T01:37:17;3.30;99.90
7204;DHT22;3643;52.460;13.322;2023-04-26T01:39:45;3.30;99.90
7204;DHT22;3643;52.460;13.322;2023-04-26T01:42:15;3.30;99.90
7204;DHT22;3643;52.460;13.322;2023-04-26T01:44:44;3.30;99.90
7204;DHT22;3643;52.460;13.322;2023-04-26T01:47:13;3.30;99.90
7204;DHT22;3643;52.460;13.322;2023-04-26T01:49:42;3.30;99.90
7204;DHT22;3643;52.460;13.322;2023-04-26T01:52:10;3.30;99.90
7204;DHT22;3643;52.460;13.322;2023-04-26T01:54:39;3.30;99.90
7204;DHT22;3643;52.460;13.322;2023-04-26T01:57:08;3.30;99.90
7204;DHT22;3643;52.460;13.322;2023-04-26T01:59:38;3.30;99.90
7204;DHT22;3643;52.460;13.322;2023-04-26T02:02:07;3.20;99.90
7204;DHT22;3643;52.460;13.322;2023-04-26T02:04:36;3.20;99.90
7204;DHT22;3643;52.460;13.322;2023-04-26T02:07:05;3.20;99.90
7204;DHT22;3643;52.460;13.322;2023-04-26T02:09:33;3.20;99.90
7204;DHT22;3643;52.460;13.322;2023-04-26T02:12:02;3.20;99.90
7204;DHT22;3643;52.460;13.322;2023-04-26T02:14:31;3.10;99.90
7204;DHT22;3643;52.460;13.322;2023-04-26T02:17:02;3.10;99.90
7204;DHT22;3643;52.460;13.322;2023-04-26T02:19:32;3.10;99.90
7204;DHT22;3643;52.460;13.322;2023-04-26T02:22:03;3.10;99.90
7204;DHT22;3643;52.460;13.322;2023-04-26T02:24:32;3.10;99.90
7204;DHT22;3643;52.460;13.322;2023-04-26T02:27:01;3.00;99.90
7204;DHT22;3643;52.460;13.322;2023-04-26T02:29:31;3.00;99.90
7204;DHT22;3643;52.460;13.322;2023-04-26T02:32:12;3.00;99.90
7204;DHT22;3643;52.460;13.322;2023-04-26T02:34:42;2.90;99.90
7204;DHT22;3643;52.460;13.322;2023-04-26T02:37:11;3.00;99.90
7204;DHT22;3643;52.460;13.322;2023-04-26T02:39:39;3.00;99.90
7204;DHT22;3643;52.460;13.322;2023-04-26T02:42:08;3.00;99.90
7204;DHT22;3643;52.460;13.322;2023-04-26T02:44:37;2.90;99.90
7204;DHT22;3643;52.460;13.322;2023-04-26T02:47:06;2.90;99.90
7204;DHT22;3643;52.460;13.322;2023-04-26T02:49:37;2.80;99.90
7204;DHT22;3643;52.460;13.322;2023-04-26T02:52:05;2.90;99.90
7204;DHT22;3643;52.460;13.322;2023-04-26T02:54:34;2.90;99.90
7204;DHT22;3643;52.460;13.322;2023-04-26T02:57:03;2.90;99.90
7204;DHT22;3643;52.460;13.322;2023-04-26T02:59:32;2.90;99.90
7204;DHT22;3643;52.460;13.322;2023-04-26T03:02:01;2.80;99.90
7204;DHT22;3643;52.460;13.322;2023-04-26T03:04:31;2.80;99.90
7204;DHT22;3643;52.460;13.322;2023-04-26T03:07:02;2.80;99.90
7204;DHT22;3643;52.460;13.322;2023-04-26T03:09:31;2.80;99.90
7204;DHT22;3643;52.460;13.322;2023-04-26T03:12:00;2.70;99.90
7204;DHT22;3643;52.460;13.322;2023-04-26T03:14:29;2.70;99.90
7204;DHT22;3643;52.460;13.322;2023-04-26T03:16:57;2.80;99.90
7204;DHT22;3643;52.460;13.322;2023-04-26T03:19:26;2.70;99.90
7204;DHT22;3643;52.460;13.322;2023-04-26T03:21:55;2.70;99.90
7204;DHT22;3643;52.460;13.322;2023-04-26T03:24:26;2.70;99.90
7204;DHT22;3643;52.460;13.322;2023-04-26T03:26:54;2.70;99.90
7204;DHT22;3643;52.460;13.322;2023-04-26T03:29:23;2.70;99.90
7204;DHT22;3643;52.460;13.322;2023-04-26T03:31:53;2.70;99.90
7204;DHT22;3643;52.460;13.322;2023-04-26T03:34:21;2.60;99.90
7204;DHT22;3643;52.460;13.322;2023-04-26T03:36:50;2.70;99.90
7204;DHT22;3643;52.460;13.322;2023-04-26T03:39:18;2.30;99.90
7204;DHT22;3643;52.460;13.322;2023-04-26T03:41:50;2.60;99.90
7204;DHT22;3643;52.460;13.322;2023-04-26T03:44:19;2.60;99.90
7204;DHT22;3643;52.460;13.322;2023-04-26T03:46:48;2.50;99.90
7204;DHT22;3643;52.460;13.322;2023-04-26T03:49:16;2.60;99.90
7204;DHT22;3643;52.460;13.322;2023-04-26T03:51:45;2.50;99.90
7204;DHT22;3643;52.460;13.322;2023-04-26T03:54:14;2.60;99.90
7204;DHT22;3643;52.460;13.322;2023-04-26T03:56:43;2.60;99.90
7204;DHT22;3643;52.460;13.322;2023-04-26T03:59:13;2.70;99.90
7204;DHT22;3643;52.460;13.322;2023-04-26T04:01:41;2.70;99.90
7204;DHT22;3643;52.460;13.322;2023-04-26T04:04:09;2.70;99.90
7204;DHT22;3643;52.460;13.322;2023-04-26T04:06:38;2.70;99.90
7204;DHT22;3643;52.460;13.322;2023-04-26T04:09:06;2.80;99.90
7204;DHT22;3643;52.460;13.322;2023-04-26T04:11:35;2.80;99.90
7204;DHT22;3643;52.460;13.322;2023-04-26T04:14:03;2.80;99.90
7204;DHT22;3643;52.460;13.322;2023-04-26T04:16:33;2.90;99.90
7204;DHT22;3643;52.460;13.322;2023-04-26T04:19:01;2.80;99.90
7204;DHT22;3643;52.460;13.322;2023-04-26T04:21:30;3.00;99.90
7204;DHT22;3643;52.460;13.322;2023-04-26T04:23:58;2.90;99.90
7204;DHT22;3643;52.460;13.322;2023-04-26T04:26:27;3.00;99.90
7204;DHT22;3643;52.460;13.322;2023-04-26T04:28:55;3.00;99.90
7204;DHT22;3643;52.460;13.322;2023-04-26T04:31:26;3.10;99.90
7204;DHT22;3643;52.460;13.322;2023-04-26T04:33:56;3.10;99.90
7204;DHT22;3643;52.460;13.322;2023-04-26T04:36:25;3.20;99.90
7204;DHT22;3643;52.460;13.322;2023-04-26T04:38:53;3.20;99.90
7204;DHT22;3643;52.460;13.322;2023-04-26T04:41:21;3.20;99.90
7204;DHT22;3643;52.460;13.322;2023-04-26T04:43:50;3.30;99.90
7204;DHT22;3643;52.460;13.322;2023-04-26T04:46:19;3.40;99.90
7204;DHT22;3643;52.460;13.322;2023-04-26T04:48:48;3.50;99.90
7204;DHT22;3643;52.460;13.322;2023-04-26T04:51:18;3.50;99.90
7204;DHT22;3643;52.460;13.322;2023-04-26T04:53:46;3.60;99.90
7204;DHT22;3643;52.460;13.322;2023-04-26T04:56:14;3.70;99.90
7204;DHT22;3643;52.460;13.322;2023-04-26T04:58:44;3.80;99.90
7204;DHT22;3643;52.460;13.322;2023-04-26T05:01:13;3.80;99.90
7204;DHT22;3643;52.460;13.322;2023-04-26T05:03:42;3.90;99.90
7204;DHT22;3643;52.460;13.322;2023-04-26T05:06:10;3.90;99.90
7204;DHT22;3643;52.460;13.322;2023-04-26T05:08:40;4.00;99.90
7204;DHT22;3643;52.460;13.322;2023-04-26T05:11:08;4.10;99.90
7204;DHT22;3643;52.460;13.322;2023-04-26T05:13:37;4.20;99.90
7204;DHT22;3643;52.460;13.322;2023-04-26T05:16:05;4.40;99.90
7204;DHT22;3643;52.460;13.322;2023-04-26T05:18:34;4.50;99.90
7204;DHT22;3643;52.460;13.322;2023-04-26T05:21:02;4.70;99.90
7204;DHT22;3643;52.460;13.322;2023-04-26T05:23:31;4.90;99.90
7204;DHT22;3643;52.460;13.322;2023-04-26T05:26:02;4.90;99.90
7204;DHT22;3643;52.460;13.322;2023-04-26T05:28:32;5.50;99.90
7204;DHT22;3643;52.460;13.322;2023-04-26T05:31:00;6.90;99.90
7204;DHT22;3643;52.460;13.322;2023-04-26T05:33:30;8.30;99.90
7204;DHT22;3643;52.460;13.322;2023-04-26T05:35:58;9.40;99.90
7204;DHT22;3643;52.460;13.322;2023-04-26T05:38:27;10.30;99.90
7204;DHT22;3643;52.460;13.322;2023-04-26T05:40:56;11.40;99.90
7204;DHT22;3643;52.460;13.322;2023-04-26T05:43:26;12.30;99.90
7204;DHT22;3643;52.460;13.322;2023-04-26T05:45:55;12.90;99.30
7204;DHT22;3643;52.460;13.322;2023-04-26T05:48:24;13.60;98.80
7204;DHT22;3643;52.460;13.322;2023-04-26T05:50:52;13.60;97.70
7204;DHT22;3643;52.460;13.322;2023-04-26T05:53:21;13.30;96.90
7204;DHT22;3643;52.460;13.322;2023-04-26T05:55:49;14.00;97.50
7204;DHT22;3643;52.460;13.322;2023-04-26T05:58:17;14.50;96.40
7204;DHT22;3643;52.460;13.322;2023-04-26T06:00:47;14.20;96.10
7204;DHT22;3643;52.460;13.322;2023-04-26T06:03:15;14.80;95.50
7204;DHT22;3643;52.460;13.322;2023-04-26T06:05:45;14.90;94.90
7204;DHT22;3643;52.460;13.322;2023-04-26T06:08:14;14.40;95.40
7204;DHT22;3643;52.460;13.322;2023-04-26T06:10:42;14.90;94.40
7204;DHT22;3643;52.460;13.322;2023-04-26T06:13:10;15.50;94.90
7204;DHT22;3643;52.460;13.322;2023-04-26T06:15:39;15.90;93.20
7204;DHT22;3643;52.460;13.322;2023-04-26T06:18:09;15.90;93.60
7204;DHT22;3643;52.460;13.322;2023-04-26T06:20:37;16.40;92.80
7204;DHT22;3643;52.460;13.322;2023-04-26T06:23:06;16.50;92.60
7204;DHT22;3643;52.460;13.322;2023-04-26T06:25:34;15.90;92.90
7204;DHT22;3643;52.460;13.322;2023-04-26T06:28:03;16.70;92.60
7204;DHT22;3643;52.460;13.322;2023-04-26T06:30:32;16.90;91.70
7204;DHT22;3643;52.460;13.322;2023-04-26T06:33:00;16.80;91.80
7204;DHT22;3643;52.460;13.322;2023-04-26T06:35:30;16.90;92.70
7204;DHT22;3643;52.460;13.322;2023-04-26T06:38:00;17.50;91.40
7204;DHT22;3643;52.460;13.322;2023-04-26T06:40:28;17.70;91.50
7204;DHT22;3643;52.460;13.322;2023-04-26T06:42:56;17.90;90.90
7204;DHT22;3643;52.460;13.322;2023-04-26T06:45:25;17.50;91.80
7204;DHT22;3643;52.460;13.322;2023-04-26T06:47:53;16.80;90.80
7204;DHT22;3643;52.460;13.322;2023-04-26T06:50:23;17.10;90.80
7204;DHT22;3643;52.460;13.322;2023-04-26T06:52:52;17.30;91.20
7204;DHT22;3643;52.460;13.322;2023-04-26T06:55:21;18.10;90.30
7204;DHT22;3643;52.460;13.322;2023-04-26T06:57:50;19.10;89.70
7204;DHT22;3643;52.460;13.322;2023-04-26T07:00:19;18.50;90.10
7204;DHT22;3643;52.460;13.322;2023-04-26T07:02:48;19.40;89.40
7204;DHT22;3643;52.460;13.322;2023-04-26T07:05:17;19.50;88.10
7204;DHT22;3643;52.460;13.322;2023-04-26T07:07:45;19.40;88.10
7204;DHT22;3643;52.460;13.322;2023-04-26T07:10:15;17.60;89.90
7204;DHT22;3643;52.460;13.322;2023-04-26T07:12:43;16.30;90.30
7204;DHT22;3643;52.460;13.322;2023-04-26T07:15:12;15.80;91.00
7204;DHT22;3643;52.460;13.322;2023-04-26T07:17:41;14.50;91.10
7204;DHT22;3643;52.460;13.322;2023-04-26T07:20:10;13.80;92.00
7204;DHT22;3643;52.460;13.322;2023-04-26T07:22:39;12.90;93.00
7204;DHT22;3643;52.460;13.322;2023-04-26T07:25:07;14.00;92.60
7204;DHT22;3643;52.460;13.322;2023-04-26T07:27:37;14.40;92.20
7204;DHT22;3643;52.460;13.322;2023-04-26T07:30:07;15.20;91.30
7204;DHT22;3643;52.460;13.322;2023-04-26T07:32:36;16.30;91.00
7204;DHT22;3643;52.460;13.322;2023-04-26T07:35:06;16.90;89.40
7204;DHT22;3643;52.460;13.322;2023-04-26T07:37:36;16.80;89.00
7204;DHT22;3643;52.460;13.322;2023-04-26T07:40:06;15.60;89.70
7204;DHT22;3643;52.460;13.322;2023-04-26T07:42:37;14.90;91.00
7204;DHT22;3643;52.460;13.322;2023-04-26T07:45:07;16.40;90.70
7204;DHT22;3643;52.460;13.322;2023-04-26T07:47:36;17.30;89.30
7204;DHT22;3643;52.460;13.322;2023-04-26T07:50:05;15.70;90.20
7204;DHT22;3643;52.460;13.322;2023-04-26T07:52:34;14.10;91.00
7204;DHT22;3643;52.460;13.322;2023-04-26T07:55:03;13.20;91.60
7204;DHT22;3643;52.460;13.322;2023-04-26T07:57:31;12.90;91.80
7204;DHT22;3643;52.460;13.322;2023-04-26T08:00:01;12.60;92.40
7204;DHT22;3643;52.460;13.322;2023-04-26T08:02:31;12.80;93.10
7204;DHT22;3643;52.460;13.322;2023-04-26T08:05:11;13.30;92.80
7204;DHT22;3643;52.460;13.322;2023-04-26T08:07:40;13.90;92.50
7204;DHT22;3643;52.460;13.322;2023-04-26T08:10:10;13.90;92.20
7204;DHT22;3643;52.460;13.322;2023-04-26T08:12:39;13.40;92.30
7204;DHT22;3643;52.460;13.322;2023-04-26T08:15:10;12.60;93.20
7204;DHT22;3643;52.460;13.322;2023-04-26T08:17:39;12.20;94.30
7204;DHT22;3643;52.460;13.322;2023-04-26T08:20:08;10.90;94.70
7204;DHT22;3643;52.460;13.322;2023-04-26T08:22:37;9.90;96.10
7204;DHT22;3643;52.460;13.322;2023-04-26T08:25:06;9.80;97.10
7204;DHT22;3643;52.460;13.322;2023-04-26T08:27:34;9.80;97.80
7204;DHT22;3643;52.460;13.322;2023-04-26T08:30:04;9.60;99.40
7204;DHT22;3643;52.460;13.322;2023-04-26T08:32:34;9.20;99.90
7204;DHT22;3643;52.460;13.322;2023-04-26T08:35:03;9.00;99.90
7204;DHT22;3643;52.460;13.322;2023-04-26T08:37:32;8.90;99.90
7204;DHT22;3643;52.460;13.322;2023-04-26T08:40:02;9.00;99.90
7204;DHT22;3643;52.460;13.322;2023-04-26T08:42:31;9.00;99.90
7204;DHT22;3643;52.460;13.322;2023-04-26T08:45:03;9.10;99.90
7204;DHT22;3643;52.460;13.322;2023-04-26T08:47:39;9.20;99.90
7204;DHT22;3643;52.460;13.322;2023-04-26T08:50:10;9.40;99.90
7204;DHT22;3643;52.460;13.322;2023-04-26T08:52:39;9.50;99.50
7204;DHT22;3643;52.460;13.322;2023-04-26T08:55:09;9.90;99.00
7204;DHT22;3643;52.460;13.322;2023-04-26T08:57:39;10.00;97.50
7204;DHT22;3643;52.460;13.322;2023-04-26T09:00:08;10.00;97.30
7204;DHT22;3643;52.460;13.322;2023-04-26T09:02:42;10.10;96.30
7204;DHT22;3643;52.460;13.322;2023-04-26T09:05:13;10.30;96.40
7204;DHT22;3643;52.460;13.322;2023-04-26T09:07:43;10.60;96.30
7204;DHT22;3643;52.460;13.322;2023-04-26T09:10:13;10.90;95.30
7204;DHT22;3643;52.460;13.322;2023-04-26T09:12:43;10.90;94.90
7204;DHT22;3643;52.460;13.322;2023-04-26T09:15:13;11.00;94.80
7204;DHT22;3643;52.460;13.322;2023-04-26T09:17:44;11.00;94.20
7204;DHT22;3643;52.460;13.322;2023-04-26T09:20:21;10.90;94.60
7204;DHT22;3643;52.460;13.322;2023-04-26T09:22:51;10.40;95.10
7204;DHT22;3643;52.460;13.322;2023-04-26T09:25:27;10.30;95.50
7204;DHT22;3643;52.460;13.322;2023-04-26T09:27:56;10.40;95.10
7204;DHT22;3643;52.460;13.322;2023-04-26T09:30:26;10.20;95.30
7204;DHT22;3643;52.460;13.322;2023-04-26T09:32:57;10.20;95.50
7204;DHT22;3643;52.460;13.322;2023-04-26T09:35:27;10.10;95.40
7204;DHT22;3643;52.460;13.322;2023-04-26T09:37:58;10.20;95.00
7204;DHT22;3643;52.460;13.322;2023-04-26T09:40:38;10.30;95.00
7204;DHT22;3643;52.460;13.322;2023-04-26T09:43:09;10.00;95.20
7204;DHT22;3643;52.460;13.322;2023-04-26T09:45:46;9.80;96.30
7204;DHT22;3643;52.460;13.322;2023-04-26T09:48:19;9.60;96.60
7204;DHT22;3643;52.460;13.322;2023-04-26T09:50:49;9.60;96.80
7204;DHT22;3643;52.460;13.322;2023-04-26T09:53:27;9.80;97.00
7204;DHT22;3643;52.460;13.322;2023-04-26T09:55:56;10.20;96.30
7204;DHT22;3643;52.460;13.322;2023-04-26T09:58:24;10.40;95.80
7204;DHT22;3643;52.460;13.322;2023-04-26T10:00:53;10.30;95.40
7204;DHT22;3643;52.460;13.322;2023-04-26T10:03:24;10.30;95.20
7204;DHT22;3643;52.460;13.322;2023-04-26T10:05:53;10.00;94.90
7204;DHT22;3643;52.460;13.322;2023-04-26T10:08:22;9.80;95.20
7204;DHT22;3643;52.460;13.322;2023-04-26T10:10:50;9.90;95.30
7204;DHT22;3643;52.460;13.322;2023-04-26T10:13:19;10.20;94.30
7204;DHT22;3643;52.460;13.322;2023-04-26T10:15:47;10.20;93.90
7204;DHT22;3643;52.460;13.322;2023-04-26T10:18:16;10.30;94.30
7204;DHT22;3643;52.460;13.322;2023-04-26T10:20:49;10.30;94.10
7204;DHT22;3643;52.460;13.322;2023-04-26T10:23:20;10.60;94.10
7204;DHT22;3643;52.460;13.322;2023-04-26T10:25:51;10.80;93.60
7204;DHT22;3643;52.460;13.322;2023-04-26T10:28:53;11.00;93.40
7204;DHT22;3643;52.460;13.322;2023-04-26T10:34:44;10.60;93.90
7204;DHT22;3643;52.460;13.322;2023-04-26T10:37:34;10.50;93.50
7204;DHT22;3643;52.460;13.322;2023-04-26T10:40:24;10.30;93.70
7204;DHT22;3643;52.460;13.322;2023-04-26T10:43:26;10.20;92.90
7204;DHT22;3643;52.460;13.322;2023-04-26T10:45:55;10.10;93.00
7204;DHT22;3643;52.460;13.322;2023-04-26T10:48:28;10.00;93.20
7204;DHT22;3643;52.460;13.322;2023-04-26T10:51:07;10.00;93.60
7204;DHT22;3643;52.460;13.322;2023-04-26T10:53:58;10.00;93.70
7204;DHT22;3643;52.460;13.322;2023-04-26T10:56:51;10.20;93.80
7204;DHT22;3643;52.460;13.322;2023-04-26T10:59:20;10.30;94.10
7204;DHT22;3643;52.460;13.322;2023-04-26T11:02:09;10.40;94.30
7204;DHT22;3643;52.460;13.322;2023-04-26T11:04:50;10.60;93.60
7204;DHT22;3643;52.460;13.322;2023-04-26T11:07:37;10.70;93.70
7204;DHT22;3643;52.460;13.322;2023-04-26T11:10:09;10.50;93.10
7204;DHT22;3643;52.460;13.322;2023-04-26T11:12:40;10.30;93.20
7204;DHT22;3643;52.460;13.322;2023-04-26T11:15:11;10.20;93.50
7204;DHT22;3643;52.460;13.322;2023-04-26T11:17:40;10.30;93.70
7204;DHT22;3643;52.460;13.322;2023-04-26T11:20:09;10.30;93.70
7204;DHT22;3643;52.460;13.322;2023-04-26T11:22:43;10.50;93.50
7204;DHT22;3643;52.460;13.322;2023-04-26T11:25:13;10.80;93.30
7204;DHT22;3643;52.460;13.322;2023-04-26T11:27:42;11.20;93.00
7204;DHT22;3643;52.460;13.322;2023-04-26T11:30:11;11.40;92.90
7204;DHT22;3643;52.460;13.322;2023-04-26T11:32:40;11.60;92.90
7204;DHT22;3643;52.460;13.322;2023-04-26T11:35:09;11.80;92.50
7204;DHT22;3643;52.460;13.322;2023-04-26T11:37:37;12.00;91.70
7204;DHT22;3643;52.460;13.322;2023-04-26T11:40:09;11.80;91.60
7204;DHT22;3643;52.460;13.322;2023-04-26T11:42:40;11.60;91.80
7204;DHT22;3643;52.460;13.322;2023-04-26T11:45:09;11.10;92.10
7204;DHT22;3643;52.460;13.322;2023-04-26T11:47:39;10.60;93.20
7204;DHT22;3643;52.460;13.322;2023-04-26T11:50:08;10.20;94.30
7204;DHT22;3643;52.460;13.322;2023-04-26T11:52:37;9.90;95.60
7204;DHT22;3643;52.460;13.322;2023-04-26T11:55:08;9.40;95.90
7204;DHT22;3643;52.460;13.322;2023-04-26T11:57:39;9.40;96.20
7204;DHT22;3643;52.460;13.322;2023-04-26T12:00:11;9.50;96.40
7204;DHT22;3643;52.460;13.322;2023-04-26T12:02:44;9.80;96.20
7204;DHT22;3643;52.460;13.322;2023-04-26T12:05:23;10.30;95.50
7204;DHT22;3643;52.460;13.322;2023-04-26T12:07:52;10.70;94.30
7204;DHT22;3643;52.460;13.322;2023-04-26T12:10:24;10.80;93.00
7204;DHT22;3643;52.460;13.322;2023-04-26T12:12:57;11.00;93.00
7204;DHT22;3643;52.460;13.322;2023-04-26T12:15:30;11.10;92.90
7204;DHT22;3643;52.460;13.322;2023-04-26T12:17:59;11.00;93.10
7204;DHT22;3643;52.460;13.322;2023-04-26T12:20:30;11.00;93.00
7204;DHT22;3643;52.460;13.322;2023-04-26T12:23:03;11.00;92.70
7204;DHT22;3643;52.460;13.322;2023-04-26T12:25:34;10.80;92.20
7204;DHT22;3643;52.460;13.322;2023-04-26T12:28:08;10.30;92.30
7204;DHT22;3643;52.460;13.322;2023-04-26T12:30:39;10.10;92.60
7204;DHT22;3643;52.460;13.322;2023-04-26T12:33:08;9.90;93.60
7204;DHT22;3643;52.460;13.322;2023-04-26T12:35:44;9.70;93.80
7204;DHT22;3643;52.460;13.322;2023-04-26T12:38:13;9.70;93.70
7204;DHT22;3643;52.460;13.322;2023-04-26T12:40:42;9.70;93.50
7204;DHT22;3643;52.460;13.322;2023-04-26T12:43:15;9.80;93.90
7204;DHT22;3643;52.460;13.322;2023-04-26T12:45:44;9.90;93.50
7204;DHT22;3643;52.460;13.322;2023-04-26T12:48:13;10.00;91.80
7204;DHT22;3643;52.460;13.322;2023-04-26T12:50:43;10.40;92.00
7204;DHT22;3643;52.460;13.322;2023-04-26T12:53:12;10.90;91.40
7204;DHT22;3643;52.460;13.322;2023-04-26T12:55:41;11.20;90.90
7204;DHT22;3643;52.460;13.322;2023-04-26T12:58:11;11.30;90.50
7204;DHT22;3643;52.460;13.322;2023-04-26T13:00:42;11.40;90.50
7204;DHT22;3643;52.460;13.322;2023-04-26T13:03:11;11.30;90.10
7204;DHT22;3643;52.460;13.322;2023-04-26T13:05:41;11.50;90.30
7204;DHT22;3643;52.460;13.322;2023-04-26T13:08:09;11.70;90.30
7204;DHT22;3643;52.460;13.322;2023-04-26T13:10:38;11.70;89.10
7204;DHT22;3643;52.460;13.322;2023-04-26T13:13:07;11.60;90.30
7204;DHT22;3643;52.460;13.322;2023-04-26T13:15:36;11.40;89.80
7204;DHT22;3643;52.460;13.322;2023-04-26T13:18:06;11.30;89.10
7204;DHT22;3643;52.460;13.322;2023-04-26T13:20:35;11.40;90.30
7204;DHT22;3643;52.460;13.322;2023-04-26T13:23:04;11.70;90.50
7204;DHT22;3643;52.460;13.322;2023-04-26T13:25:33;11.80;91.10
7204;DHT22;3643;52.460;13.322;2023-04-26T13:28:02;12.00;91.10
7204;DHT22;3643;52.460;13.322;2023-04-26T13:30:30;12.20;91.30
7204;DHT22;3643;52.460;13.322;2023-04-26T13:32:59;11.80;90.60
7204;DHT22;3643;52.460;13.322;2023-04-26T13:35:29;11.50;91.30
7204;DHT22;3643;52.460;13.322;2023-04-26T13:37:58;11.70;90.70
7204;DHT22;3643;52.460;13.322;2023-04-26T13:40:27;11.40;90.60
7204;DHT22;3643;52.460;13.322;2023-04-26T13:42:56;11.10;91.10
7204;DHT22;3643;52.460;13.322;2023-04-26T13:45:25;10.80;91.60
7204;DHT22;3643;52.460;13.322;2023-04-26T13:47:54;10.60;91.80
7204;DHT22;3643;52.460;13.322;2023-04-26T13:50:23;10.40;92.30
7204;DHT22;3643;52.460;13.322;2023-04-26T13:52:53;10.30;92.40
7204;DHT22;3643;52.460;13.322;2023-04-26T13:55:22;10.40;92.50
7204;DHT22;3643;52.460;13.322;2023-04-26T13:57:51;10.70;92.20
7204;DHT22;3643;52.460;13.322;2023-04-26T14:00:21;10.90;91.30
7204;DHT22;3643;52.460;13.322;2023-04-26T14:02:50;11.00;91.20
7204;DHT22;3643;52.460;13.322;2023-04-26T14:05:19;11.10;90.70
7204;DHT22;3643;52.460;13.322;2023-04-26T14:07:48;10.90;90.90
7204;DHT22;3643;52.460;13.322;2023-04-26T14:10:22;10.90;91.30
7204;DHT22;3643;52.460;13.322;2023-04-26T14:12:51;11.00;91.30
7204;DHT22;3643;52.460;13.322;2023-04-26T14:15:21;11.00;91.30
7204;DHT22;3643;52.460;13.322;2023-04-26T14:17:49;11.00;91.70
7204;DHT22;3643;52.460;13.322;2023-04-26T14:20:18;11.30;91.80
7204;DHT22;3643;52.460;13.322;2023-04-26T14:22:46;11.40;91.70
7204;DHT22;3643;52.460;13.322;2023-04-26T14:25:16;11.60;91.10
7204;DHT22;3643;52.460;13.322;2023-04-26T14:27:46;11.70;91.10
7204;DHT22;3643;52.460;13.322;2023-04-26T14:30:17;11.80;90.70
7204;DHT22;3643;52.460;13.322;2023-04-26T14:32:45;11.80;90.80
7204;DHT22;3643;52.460;13.322;2023-04-26T14:35:14;11.70;90.90
7204;DHT22;3643;52.460;13.322;2023-04-26T14:37:43;11.70;91.00
7204;DHT22;3643;52.460;13.322;2023-04-26T14:40:12;11.30;91.10
7204;DHT22;3643;52.460;13.322;2023-04-26T14:42:41;11.30;90.90
7204;DHT22;3643;52.460;13.322;2023-04-26T14:45:13;11.20;91.10
7204;DHT22;3643;52.460;13.322;2023-04-26T14:47:42;11.10;91.30
7204;DHT22;3643;52.460;13.322;2023-04-26T14:50:11;11.10;91.00
7204;DHT22;3643;52.460;13.322;2023-04-26T14:52:41;11.00;90.90
7204;DHT22;3643;52.460;13.322;2023-04-26T14:55:16;10.70;91.30
7204;DHT22;3643;52.460;13.322;2023-04-26T14:57:45;10.60;91.60
7204;DHT22;3643;52.460;13.322;2023-04-26T15:00:16;10.60;91.40
7204;DHT22;3643;52.460;13.322;2023-04-26T15:02:45;10.60;91.70
7204;DHT22;3643;52.460;13.322;2023-04-26T15:05:14;10.70;91.70
7204;DHT22;3643;52.460;13.322;2023-04-26T15:07:42;10.90;91.60
7204;DHT22;3643;52.460;13.322;2023-04-26T15:10:11;10.90;91.30
7204;DHT22;3643;52.460;13.322;2023-04-26T15:12:40;11.00;91.30
7204;DHT22;3643;52.460;13.322;2023-04-26T15:15:09;11.00;91.40
7204;DHT22;3643;52.460;13.322;2023-04-26T15:17:39;11.00;91.60
7204;DHT22;3643;52.460;13.322;2023-04-26T15:20:08;11.10;91.50
7204;DHT22;3643;52.460;13.322;2023-04-26T15:22:36;11.30;91.60
7204;DHT22;3643;52.460;13.322;2023-04-26T15:25:06;11.20;90.90
7204;DHT22;3643;52.460;13.322;2023-04-26T15:27:35;11.10;91.40
7204;DHT22;3643;52.460;13.322;2023-04-26T15:30:04;11.00;90.80
7204;DHT22;3643;52.460;13.322;2023-04-26T15:32:33;10.90;91.00
7204;DHT22;3643;52.460;13.322;2023-04-26T15:35:04;11.00;91.20
7204;DHT22;3643;52.460;13.322;2023-04-26T15:37:35;10.90;90.80
7204;DHT22;3643;52.460;13.322;2023-04-26T15:40:06;10.90;91.00
7204;DHT22;3643;52.460;13.322;2023-04-26T15:42:36;10.90;91.00
7204;DHT22;3643;52.460;13.322;2023-04-26T15:45:06;10.70;91.00
7204;DHT22;3643;52.460;13.322;2023-04-26T15:47:35;10.70;91.40
7204;DHT22;3643;52.460;13.322;2023-04-26T15:50:06;10.70;90.90
7204;DHT22;3643;52.460;13.322;2023-04-26T15:52:35;10.80;91.10
7204;DHT22;3643;52.460;13.322;2023-04-26T15:55:06;10.90;91.00
7204;DHT22;3643;52.460;13.322;2023-04-26T15:57:36;11.00;91.10
7204;DHT22;3643;52.460;13.322;2023-04-26T16:00:05;11.10;90.90
7204;DHT22;3643;52.460;13.322;2023-04-26T16:02:35;11.00;91.00
7204;DHT22;3643;52.460;13.322;2023-04-26T16:05:06;10.90;90.90
7204;DHT22;3643;52.460;13.322;2023-04-26T16:07:35;10.80;90.30
7204;DHT22;3643;52.460;13.322;2023-04-26T16:10:06;10.60;90.50
7204;DHT22;3643;52.460;13.322;2023-04-26T16:12:35;10.40;90.70